sensor_id;sensor_type;location;lat;lon;timestamp;pressure;altitude;pressure_sealevel;temperature;humidity
56074;BME280;41950;55.840;37.442;2023-07-13T00:00:24;98711.28;;;12.25;83.54
56074;BME280;41950;55.840;37.442;2023-07-13T00:02:50;98745.44;;;12.40;83.75
56074;BME280;41950;55.840;37.442;2023-07-13T00:05:20;98749.66;;;12.42;83.97
56074;BME280;41950;55.840;37.442;2023-07-13T00:07:46;98747.97;;;12.41;84.03
56074;BME280;41950;55.840;37.442;2023-07-13T00:10:12;98730.28;;;12.27;84.07
56074;BME280;41950;55.840;37.442;2023-07-13T00:12:38;98741.47;;;12.29;84.33
56074;BME280;41950;55.840;37.442;2023-07-13T00:15:09;98755.00;;;12.39;84.21
56074;BME280;41950;55.840;37.442;2023-07-13T00:17:36;98720.97;;;12.22;84.23
56074;BME280;41950;55.840;37.442;2023-07-13T00:20:04;98748.88;;;12.40;84.57
56074;BME280;41950;55.840;37.442;2023-07-13T00:22:30;98744.69;;;12.36;84.83
56074;BME280;41950;55.840;37.442;2023-07-13T00:24:56;98720.25;;;12.18;84.91
56074;BME280;41950;55.840;37.442;2023-07-13T00:27:23;98749.97;;;12.34;84.98
56074;BME280;41950;55.840;37.442;2023-07-13T00:29:49;98729.56;;;12.24;84.97
56074;BME280;41950;55.840;37.442;2023-07-13T00:32:15;98731.25;;;12.25;85.17
56074;BME280;41950;55.840;37.442;2023-07-13T00:34:40;98746.41;;;12.37;84.96
56074;BME280;41950;55.840;37.442;2023-07-13T00:37:06;98737.69;;;12.38;85.31
56074;BME280;41950;55.840;37.442;2023-07-13T00:39:33;98748.22;;;12.35;85.25
56074;BME280;41950;55.840;37.442;2023-07-13T00:42:00;98736.16;;;12.32;85.23
56074;BME280;41950;55.840;37.442;2023-07-13T00:44:26;98733.59;;;12.31;85.39
56074;BME280;41950;55.840;37.442;2023-07-13T00:46:52;98726.03;;;12.25;85.08
56074;BME280;41950;55.840;37.442;2023-07-13T00:49:23;98721.41;;;12.33;85.28
56074;BME280;41950;55.840;37.442;2023-07-13T00:52:06;98700.28;;;12.19;85.49
56074;BME280;41950;55.840;37.442;2023-07-13T00:54:39;98740.94;;;12.43;85.52
56074;BME280;41950;55.840;37.442;2023-07-13T00:57:14;98734.16;;;12.39;85.53
56074;BME280;41950;55.840;37.442;2023-07-13T00:59:43;98718.69;;;12.36;85.51
56074;BME280;41950;55.840;37.442;2023-07-13T01:02:11;98732.94;;;12.48;85.37
56074;BME280;41950;55.840;37.442;2023-07-13T01:04:37;98698.88;;;12.32;85.33
56074;BME280;41950;55.840;37.442;2023-07-13T01:07:04;98740.50;;;12.54;85.12
56074;BME280;41950;55.840;37.442;2023-07-13T01:09:31;98735.22;;;12.55;85.15
56074;BME280;41950;55.840;37.442;2023-07-13T01:11:57;98732.69;;;12.54;85.10
56074;BME280;41950;55.840;37.442;2023-07-13T01:14:24;98728.34;;;12.54;84.97
56074;BME280;41950;55.840;37.442;2023-07-13T01:16:50;98729.13;;;12.56;85.17
56074;BME280;41950;55.840;37.442;2023-07-13T01:19:33;98730.88;;;12.56;85.01
56074;BME280;41950;55.840;37.442;2023-07-13T01:22:10;98739.53;;;12.56;84.93
56074;BME280;41950;55.840;37.442;2023-07-13T01:24:38;98718.91;;;12.52;85.16
56074;BME280;41950;55.840;37.442;2023-07-13T01:27:05;98719.75;;;12.52;85.37
56074;BME280;41950;55.840;37.442;2023-07-13T01:29:33;98696.06;;;12.38;85.05
56074;BME280;41950;55.840;37.442;2023-07-13T01:31:59;98722.28;;;12.54;85.37
56074;BME280;41950;55.840;37.442;2023-07-13T01:34:27;98701.13;;;12.41;85.31
56074;BME280;41950;55.840;37.442;2023-07-13T01:36:53;98715.44;;;12.51;85.36
56074;BME280;41950;55.840;37.442;2023-07-13T01:39:22;98705.09;;;12.50;85.41
56074;BME280;41950;55.840;37.442;2023-07-13T01:41:48;98712.84;;;12.51;85.52
56074;BME280;41950;55.840;37.442;2023-07-13T01:44:13;98712.72;;;12.54;85.49
56074;BME280;41950;55.840;37.442;2023-07-13T01:46:39;98689.63;;;12.47;85.35
56074;BME280;41950;55.840;37.442;2023-07-13T01:49:05;98689.16;;;12.37;85.46
56074;BME280;41950;55.840;37.442;2023-07-13T01:51:30;98712.66;;;12.56;85.59
56074;BME280;41950;55.840;37.442;2023-07-13T01:53:56;98705.09;;;12.50;85.65
56074;BME280;41950;55.840;37.442;2023-07-13T01:56:21;98686.22;;;12.45;85.40
56074;BME280;41950;55.840;37.442;2023-07-13T01:58:47;98708.97;;;12.61;85.32
56074;BME280;41950;55.840;37.442;2023-07-13T02:01:13;98705.47;;;12.62;85.20
56074;BME280;41950;55.840;37.442;2023-07-13T02:03:39;98693.59;;;12.55;85.13
56074;BME280;41950;55.840;37.442;2023-07-13T02:06:05;98700.91;;;12.67;85.43
56074;BME280;41950;55.840;37.442;2023-07-13T02:08:32;98697.34;;;12.70;85.47
56074;BME280;41950;55.840;37.442;2023-07-13T02:10:57;98691.28;;;12.69;85.25
56074;BME280;41950;55.840;37.442;2023-07-13T02:13:23;98695.66;;;12.69;85.10
56074;BME280;41950;55.840;37.442;2023-07-13T02:15:52;98695.56;;;12.71;84.87
56074;BME280;41950;55.840;37.442;2023-07-13T02:18:18;98673.56;;;12.57;85.18
56074;BME280;41950;55.840;37.442;2023-07-13T02:21:03;98692.25;;;12.67;85.19
56074;BME280;41950;55.840;37.442;2023-07-13T02:23:29;98698.19;;;12.71;84.95
56074;BME280;41950;55.840;37.442;2023-07-13T02:25:56;98678.66;;;12.60;85.05
56074;BME280;41950;55.840;37.442;2023-07-13T02:28:22;98690.16;;;12.75;85.04
56074;BME280;41950;55.840;37.442;2023-07-13T02:30:47;98689.84;;;12.83;85.03
56074;BME280;41950;55.840;37.442;2023-07-13T02:33:13;98693.16;;;12.86;84.99
56074;BME280;41950;55.840;37.442;2023-07-13T02:35:38;98696.69;;;12.85;84.59
56074;BME280;41950;55.840;37.442;2023-07-13T02:38:04;98686.25;;;12.85;84.42
56074;BME280;41950;55.840;37.442;2023-07-13T02:40:30;98681.25;;;12.81;84.67
56074;BME280;41950;55.840;37.442;2023-07-13T02:42:59;98686.66;;;12.76;84.88
56074;BME280;41950;55.840;37.442;2023-07-13T02:45:25;98687.63;;;12.74;84.93
56074;BME280;41950;55.840;37.442;2023-07-13T02:47:51;98664.41;;;12.69;84.87
56074;BME280;41950;55.840;37.442;2023-07-13T02:50:17;98665.66;;;12.60;85.25
56074;BME280;41950;55.840;37.442;2023-07-13T02:52:42;98693.09;;;12.67;85.54
56074;BME280;41950;55.840;37.442;2023-07-13T02:55:08;98658.31;;;12.48;85.15
56074;BME280;41950;55.840;37.442;2023-07-13T02:57:34;98678.53;;;12.63;85.11
56074;BME280;41950;55.840;37.442;2023-07-13T03:00:00;98684.25;;;12.72;85.13
56074;BME280;41950;55.840;37.442;2023-07-13T03:02:30;98688.41;;;12.76;85.10
56074;BME280;41950;55.840;37.442;2023-07-13T03:04:57;98668.50;;;12.75;85.26
56074;BME280;41950;55.840;37.442;2023-07-13T03:07:23;98679.34;;;12.84;85.16
56074;BME280;41950;55.840;37.442;2023-07-13T03:09:55;98678.50;;;12.84;85.35
56074;BME280;41950;55.840;37.442;2023-07-13T03:12:22;98668.56;;;12.73;85.60
56074;BME280;41950;55.840;37.442;2023-07-13T03:14:47;98677.22;;;12.74;85.86
56074;BME280;41950;55.840;37.442;2023-07-13T03:17:13;98678.19;;;12.71;86.05
56074;BME280;41950;55.840;37.442;2023-07-13T03:19:39;98676.56;;;12.68;85.82
56074;BME280;41950;55.840;37.442;2023-07-13T03:22:05;98682.44;;;12.74;86.03
56074;BME280;41950;55.840;37.442;2023-07-13T03:24:33;98675.41;;;12.76;85.71
56074;BME280;41950;55.840;37.442;2023-07-13T03:27:01;98687.50;;;12.77;85.59
56074;BME280;41950;55.840;37.442;2023-07-13T03:29:27;98681.06;;;12.85;85.36
56074;BME280;41950;55.840;37.442;2023-07-13T03:31:53;98685.97;;;12.93;85.13
56074;BME280;41950;55.840;37.442;2023-07-13T03:34:18;98684.06;;;12.96;84.90
56074;BME280;41950;55.840;37.442;2023-07-13T03:36:44;98678.16;;;12.93;84.80
56074;BME280;41950;55.840;37.442;2023-07-13T03:39:09;98692.53;;;13.02;84.57
56074;BME280;41950;55.840;37.442;2023-07-13T03:41:35;98689.78;;;13.05;84.40
56074;BME280;41950;55.840;37.442;2023-07-13T03:44:01;98700.13;;;13.06;84.26
56074;BME280;41950;55.840;37.442;2023-07-13T03:46:27;98695.19;;;13.00;84.48
56074;BME280;41950;55.840;37.442;2023-07-13T03:48:52;98686.75;;;12.95;84.81
56074;BME280;41950;55.840;37.442;2023-07-13T03:51:19;98676.31;;;12.95;84.50
56074;BME280;41950;55.840;37.442;2023-07-13T03:53:46;98673.38;;;13.03;84.45
56074;BME280;41950;55.840;37.442;2023-07-13T03:56:13;98677.19;;;13.14;84.26
56074;BME280;41950;55.840;37.442;2023-07-13T03:58:41;98673.75;;;13.14;83.84
56074;BME280;41950;55.840;37.442;2023-07-13T04:01:09;98703.28;;;13.35;83.75
56074;BME280;41950;55.840;37.442;2023-07-13T04:03:36;98689.59;;;13.29;83.58
56074;BME280;41950;55.840;37.442;2023-07-13T04:06:03;98693.75;;;13.34;83.48
56074;BME280;41950;55.840;37.442;2023-07-13T04:08:32;98701.00;;;13.27;83.70
56074;BME280;41950;55.840;37.442;2023-07-13T04:10:58;98694.25;;;13.23;83.51
56074;BME280;41950;55.840;37.442;2023-07-13T04:13:25;98702.00;;;13.24;83.63
56074;BME280;41950;55.840;37.442;2023-07-13T04:15:51;98690.34;;;13.11;83.64
56074;BME280;41950;55.840;37.442;2023-07-13T04:18:18;98689.44;;;13.12;83.73
56074;BME280;41950;55.840;37.442;2023-07-13T04:20:49;98715.53;;;13.33;83.59
56074;BME280;41950;55.840;37.442;2023-07-13T04:23:16;98703.97;;;13.38;83.33
56074;BME280;41950;55.840;37.442;2023-07-13T04:25:50;98682.25;;;13.19;83.89
56074;BME280;41950;55.840;37.442;2023-07-13T04:28:20;98699.09;;;13.30;83.59
56074;BME280;41950;55.840;37.442;2023-07-13T04:30:46;98674.81;;;13.30;83.70
56074;BME280;41950;55.840;37.442;2023-07-13T04:33:12;98684.88;;;13.38;83.40
56074;BME280;41950;55.840;37.442;2023-07-13T04:35:38;98707.28;;;13.42;83.40
56074;BME280;41950;55.840;37.442;2023-07-13T04:38:03;98681.50;;;13.36;83.13
56074;BME280;41950;55.840;37.442;2023-07-13T04:40:30;98688.78;;;13.48;83.10
56074;BME280;41950;55.840;37.442;2023-07-13T04:42:55;98663.72;;;13.45;82.85
56074;BME280;41950;55.840;37.442;2023-07-13T04:45:22;98658.00;;;13.56;82.65
56074;BME280;41950;55.840;37.442;2023-07-13T04:47:49;98686.63;;;13.76;81.91
56074;BME280;41950;55.840;37.442;2023-07-13T04:50:15;98681.97;;;13.83;81.57
56074;BME280;41950;55.840;37.442;2023-07-13T04:52:45;98682.44;;;13.91;81.39
56074;BME280;41950;55.840;37.442;2023-07-13T04:55:11;98663.63;;;13.84;81.37
56074;BME280;41950;55.840;37.442;2023-07-13T04:57:36;98666.31;;;14.02;80.81
56074;BME280;41950;55.840;37.442;2023-07-13T05:00:04;98663.34;;;14.09;80.26
56074;BME280;41950;55.840;37.442;2023-07-13T05:02:33;98692.16;;;14.42;79.52
56074;BME280;41950;55.840;37.442;2023-07-13T05:04:59;98681.13;;;14.37;79.17
56074;BME280;41950;55.840;37.442;2023-07-13T05:07:26;98680.03;;;14.41;79.09
56074;BME280;41950;55.840;37.442;2023-07-13T05:09:52;98706.91;;;14.62;78.60
56074;BME280;41950;55.840;37.442;2023-07-13T05:12:17;98703.38;;;14.63;77.94
56074;BME280;41950;55.840;37.442;2023-07-13T05:14:43;98707.06;;;14.59;78.22
56074;BME280;41950;55.840;37.442;2023-07-13T05:17:09;98712.28;;;14.59;77.91
56074;BME280;41950;55.840;37.442;2023-07-13T05:19:35;98695.25;;;14.52;78.24
56074;BME280;41950;55.840;37.442;2023-07-13T05:22:00;98704.38;;;14.78;77.69
56074;BME280;41950;55.840;37.442;2023-07-13T05:24:28;98701.84;;;15.11;76.96
56074;BME280;41950;55.840;37.442;2023-07-13T05:26:53;98703.69;;;15.09;75.86
56074;BME280;41950;55.840;37.442;2023-07-13T05:29:20;98695.28;;;15.02;76.43
56074;BME280;41950;55.840;37.442;2023-07-13T05:31:46;98699.75;;;15.00;76.07
56074;BME280;41950;55.840;37.442;2023-07-13T05:34:12;98678.19;;;14.79;76.53
56074;BME280;41950;55.840;37.442;2023-07-13T05:36:38;98700.84;;;14.79;76.65
56074;BME280;41950;55.840;37.442;2023-07-13T05:39:04;98698.78;;;14.86;77.25
56074;BME280;41950;55.840;37.442;2023-07-13T05:41:30;98699.44;;;15.06;76.39
56074;BME280;41950;55.840;37.442;2023-07-13T05:43:55;98702.13;;;15.05;75.49
56074;BME280;41950;55.840;37.442;2023-07-13T05:46:21;98697.63;;;15.08;75.46
56074;BME280;41950;55.840;37.442;2023-07-13T05:48:47;98690.91;;;15.20;75.03
56074;BME280;41950;55.840;37.442;2023-07-13T05:51:13;98685.03;;;15.32;74.47
56074;BME280;41950;55.840;37.442;2023-07-13T05:53:39;98677.09;;;15.34;74.32
56074;BME280;41950;55.840;37.442;2023-07-13T05:56:04;98689.63;;;15.44;73.66
56074;BME280;41950;55.840;37.442;2023-07-13T05:58:30;98672.88;;;15.31;73.87
56074;BME280;41950;55.840;37.442;2023-07-13T06:01:04;98688.44;;;15.50;73.56
56074;BME280;41950;55.840;37.442;2023-07-13T06:03:30;98663.06;;;15.52;72.70
56074;BME280;41950;55.840;37.442;2023-07-13T06:05:57;98670.88;;;15.69;72.59
56074;BME280;41950;55.840;37.442;2023-07-13T06:08:22;98681.25;;;15.87;71.88
56074;BME280;41950;55.840;37.442;2023-07-13T06:10:48;98677.06;;;16.00;71.14
56074;BME280;41950;55.840;37.442;2023-07-13T06:13:14;98640.59;;;15.97;70.49
56074;BME280;41950;55.840;37.442;2023-07-13T06:15:40;98660.84;;;16.09;69.53
56074;BME280;41950;55.840;37.442;2023-07-13T06:18:05;98633.69;;;15.96;69.10
56074;BME280;41950;55.840;37.442;2023-07-13T06:20:33;98641.59;;;16.10;69.31
56074;BME280;41950;55.840;37.442;2023-07-13T06:23:00;98658.16;;;16.41;68.01
56074;BME280;41950;55.840;37.442;2023-07-13T06:25:26;98629.03;;;16.47;67.16
56074;BME280;41950;55.840;37.442;2023-07-13T06:27:52;98647.47;;;16.75;66.45
56074;BME280;41950;55.840;37.442;2023-07-13T06:30:18;98654.59;;;16.87;66.24
56074;BME280;41950;55.840;37.442;2023-07-13T06:32:43;98647.50;;;16.89;65.62
56074;BME280;41950;55.840;37.442;2023-07-13T06:35:09;98646.19;;;16.82;65.89
56074;BME280;41950;55.840;37.442;2023-07-13T06:37:38;98656.84;;;16.63;65.21
56074;BME280;41950;55.840;37.442;2023-07-13T06:40:04;98663.16;;;16.45;66.02
56074;BME280;41950;55.840;37.442;2023-07-13T06:42:30;98623.19;;;16.12;65.91
56074;BME280;41950;55.840;37.442;2023-07-13T06:44:55;98641.00;;;16.05;65.76
56074;BME280;41950;55.840;37.442;2023-07-13T06:47:21;98653.75;;;16.11;66.11
56074;BME280;41950;55.840;37.442;2023-07-13T06:49:47;98635.00;;;16.03;66.39
56074;BME280;41950;55.840;37.442;2023-07-13T06:52:12;98634.31;;;16.15;66.50
56074;BME280;41950;55.840;37.442;2023-07-13T06:54:38;98651.50;;;16.35;65.62
56074;BME280;41950;55.840;37.442;2023-07-13T06:57:04;98657.94;;;16.45;65.72
56074;BME280;41950;55.840;37.442;2023-07-13T06:59:30;98652.16;;;16.54;65.07
56074;BME280;41950;55.840;37.442;2023-07-13T07:01:55;98596.44;;;16.36;64.63
56074;BME280;41950;55.840;37.442;2023-07-13T07:04:21;98645.03;;;16.72;62.83
56074;BME280;41950;55.840;37.442;2023-07-13T07:06:47;98646.88;;;16.70;62.71
56074;BME280;41950;55.840;37.442;2023-07-13T07:09:13;98625.03;;;16.55;62.96
56074;BME280;41950;55.840;37.442;2023-07-13T07:11:39;98613.34;;;16.61;63.22
56074;BME280;41950;55.840;37.442;2023-07-13T07:14:04;98614.72;;;16.82;63.34
56074;BME280;41950;55.840;37.442;2023-07-13T07:16:30;98651.38;;;17.12;63.15
56074;BME280;41950;55.840;37.442;2023-07-13T07:18:56;98650.06;;;17.19;63.21
56074;BME280;41950;55.840;37.442;2023-07-13T07:21:22;98648.94;;;17.09;63.08
56074;BME280;41950;55.840;37.442;2023-07-13T07:23:48;98651.06;;;16.88;62.67
56074;BME280;41950;55.840;37.442;2023-07-13T07:26:14;98665.06;;;16.73;63.80
56074;BME280;41950;55.840;37.442;2023-07-13T07:28:40;98668.97;;;16.66;64.06
56074;BME280;41950;55.840;37.442;2023-07-13T07:31:06;98655.22;;;16.47;64.44
56074;BME280;41950;55.840;37.442;2023-07-13T07:33:33;98676.94;;;16.49;64.85
56074;BME280;41950;55.840;37.442;2023-07-13T07:36:00;98675.66;;;16.40;65.54
56074;BME280;41950;55.840;37.442;2023-07-13T07:38:26;98638.03;;;16.11;65.86
56074;BME280;41950;55.840;37.442;2023-07-13T07:40:52;98670.19;;;16.29;66.44
56074;BME280;41950;55.840;37.442;2023-07-13T07:43:18;98650.53;;;16.06;66.66
56074;BME280;41950;55.840;37.442;2023-07-13T07:45:45;98677.66;;;16.21;67.37
56074;BME280;41950;55.840;37.442;2023-07-13T07:48:11;98668.19;;;16.18;67.58
56074;BME280;41950;55.840;37.442;2023-07-13T07:50:37;98670.38;;;16.10;67.80
56074;BME280;41950;55.840;37.442;2023-07-13T07:53:05;98678.50;;;16.05;68.25
56074;BME280;41950;55.840;37.442;2023-07-13T07:55:33;98680.44;;;16.02;67.55
56074;BME280;41950;55.840;37.442;2023-07-13T07:58:00;98667.75;;;16.10;67.89
56074;BME280;41950;55.840;37.442;2023-07-13T08:00:26;98669.13;;;16.17;68.01
56074;BME280;41950;55.840;37.442;2023-07-13T08:02:53;98673.56;;;16.15;67.85
56074;BME280;41950;55.840;37.442;2023-07-13T08:05:19;98627.41;;;15.83;67.75
56074;BME280;41950;55.840;37.442;2023-07-13T08:07:44;98663.94;;;16.16;67.65
56074;BME280;41950;55.840;37.442;2023-07-13T08:10:10;98632.56;;;16.00;68.20
56074;BME280;41950;55.840;37.442;2023-07-13T08:12:39;98670.13;;;16.30;67.67
56074;BME280;41950;55.840;37.442;2023-07-13T08:15:09;98664.28;;;16.25;68.29
56074;BME280;41950;55.840;37.442;2023-07-13T08:17:35;98649.44;;;16.10;68.62
56074;BME280;41950;55.840;37.442;2023-07-13T08:20:01;98675.88;;;16.21;68.48
56074;BME280;41950;55.840;37.442;2023-07-13T08:22:29;98664.88;;;16.15;68.59
56074;BME280;41950;55.840;37.442;2023-07-13T08:24:55;98660.16;;;16.05;68.57
56074;BME280;41950;55.840;37.442;2023-07-13T08:27:23;98677.03;;;16.16;68.99
56074;BME280;41950;55.840;37.442;2023-07-13T08:29:49;98667.50;;;16.15;68.97
56074;BME280;41950;55.840;37.442;2023-07-13T08:32:15;98678.50;;;16.21;69.15
56074;BME280;41950;55.840;37.442;2023-07-13T08:34:41;98673.16;;;16.23;69.59
56074;BME280;41950;55.840;37.442;2023-07-13T08:37:08;98673.75;;;16.28;69.30
56074;BME280;41950;55.840;37.442;2023-07-13T08:39:34;98682.03;;;16.20;68.74
56074;BME280;41950;55.840;37.442;2023-07-13T08:42:10;98660.84;;;16.09;69.11
56074;BME280;41950;55.840;37.442;2023-07-13T08:47:30;98683.91;;;16.02;70.50
56074;BME280;41950;55.840;37.442;2023-07-13T08:49:57;98637.38;;;15.76;71.26
56074;BME280;41950;55.840;37.442;2023-07-13T08:52:32;98694.97;;;15.92;72.69
56074;BME280;41950;55.840;37.442;2023-07-13T08:55:06;98641.75;;;15.60;72.55
56074;BME280;41950;55.840;37.442;2023-07-13T08:57:35;98689.13;;;15.87;73.05
56074;BME280;41950;55.840;37.442;2023-07-13T09:00:01;98685.34;;;15.92;73.23
56074;BME280;41950;55.840;37.442;2023-07-13T09:02:51;98698.00;;;16.00;73.90
56074;BME280;41950;55.840;37.442;2023-07-13T09:05:28;98683.97;;;15.85;74.14
56074;BME280;41950;55.840;37.442;2023-07-13T09:08:26;98710.50;;;15.95;74.51
56074;BME280;41950;55.840;37.442;2023-07-13T09:14:13;98717.25;;;15.99;75.54
56074;BME280;41950;55.840;37.442;2023-07-13T09:16:46;98720.97;;;15.95;75.82
56074;BME280;41950;55.840;37.442;2023-07-13T09:19:24;98715.28;;;15.87;76.02
56074;BME280;41950;55.840;37.442;2023-07-13T09:21:52;98700.34;;;15.73;75.77
56074;BME280;41950;55.840;37.442;2023-07-13T09:26:48;98705.59;;;15.89;77.17
56074;BME280;41950;55.840;37.442;2023-07-13T09:29:22;98689.97;;;15.87;77.71
56074;BME280;41950;55.840;37.442;2023-07-13T09:31:54;98699.00;;;15.97;78.03
56074;BME280;41950;55.840;37.442;2023-07-13T09:34:24;98713.03;;;15.96;78.32
56074;BME280;41950;55.840;37.442;2023-07-13T09:36:50;98689.38;;;15.66;77.91
56074;BME280;41950;55.840;37.442;2023-07-13T09:39:26;98721.69;;;15.81;78.56
56074;BME280;41950;55.840;37.442;2023-07-13T09:44:42;98687.50;;;15.68;79.23
56074;BME280;41950;55.840;37.442;2023-07-13T09:47:19;98696.97;;;15.71;78.81
56074;BME280;41950;55.840;37.442;2023-07-13T09:49:48;98710.97;;;15.70;79.13
56074;BME280;41950;55.840;37.442;2023-07-13T09:52:19;98708.06;;;15.59;79.43
56074;BME280;41950;55.840;37.442;2023-07-13T09:54:46;98699.59;;;15.54;79.73
56074;BME280;41950;55.840;37.442;2023-07-13T09:57:19;98683.38;;;15.47;80.17
56074;BME280;41950;55.840;37.442;2023-07-13T09:59:50;98689.38;;;15.49;80.09
56074;BME280;41950;55.840;37.442;2023-07-13T10:02:24;98714.44;;;15.53;79.14
56074;BME280;41950;55.840;37.442;2023-07-13T10:05:11;98676.22;;;15.18;80.15
56074;BME280;41950;55.840;37.442;2023-07-13T10:07:41;98669.84;;;15.06;80.53
56074;BME280;41950;55.840;37.442;2023-07-13T10:10:21;98704.50;;;15.27;81.29
56074;BME280;41950;55.840;37.442;2023-07-13T10:12:48;98714.56;;;15.34;81.28
56074;BME280;41950;55.840;37.442;2023-07-13T10:15:18;98689.22;;;15.19;81.82
56074;BME280;41950;55.840;37.442;2023-07-13T10:17:45;98705.34;;;15.27;82.05
56074;BME280;41950;55.840;37.442;2023-07-13T10:20:11;98693.09;;;15.12;82.79
56074;BME280;41950;55.840;37.442;2023-07-13T10:25:24;98676.25;;;15.00;82.69
56074;BME280;41950;55.840;37.442;2023-07-13T10:27:53;98713.91;;;15.13;82.12
56074;BME280;41950;55.840;37.442;2023-07-13T10:30:28;98696.69;;;14.92;82.77
56074;BME280;41950;55.840;37.442;2023-07-13T10:32:58;98719.66;;;15.03;84.54
56074;BME280;41950;55.840;37.442;2023-07-13T10:35:26;98723.03;;;15.05;83.37
56074;BME280;41950;55.840;37.442;2023-07-13T10:38:00;98713.66;;;15.01;83.50
56074;BME280;41950;55.840;37.442;2023-07-13T10:40:42;98724.88;;;15.03;83.00
56074;BME280;41950;55.840;37.442;2023-07-13T10:43:36;98725.28;;;14.95;83.43
56074;BME280;41950;55.840;37.442;2023-07-13T10:46:05;98722.44;;;14.82;83.47
56074;BME280;41950;55.840;37.442;2023-07-13T10:48:34;98708.97;;;14.73;83.87
56074;BME280;41950;55.840;37.442;2023-07-13T10:51:03;98722.03;;;14.73;84.50
56074;BME280;41950;55.840;37.442;2023-07-13T10:53:34;98716.44;;;14.63;84.84
56074;BME280;41950;55.840;37.442;2023-07-13T10:56:03;98729.25;;;14.68;85.02
56074;BME280;41950;55.840;37.442;2023-07-13T10:58:39;98726.72;;;14.66;85.69
56074;BME280;41950;55.840;37.442;2023-07-13T11:01:17;98716.44;;;14.63;85.24
56074;BME280;41950;55.840;37.442;2023-07-13T11:08:58;98718.97;;;14.65;85.08
56074;BME280;41950;55.840;37.442;2023-07-13T11:11:34;98719.66;;;14.68;84.63
56074;BME280;41950;55.840;37.442;2023-07-13T11:14:02;98718.81;;;14.68;83.76
56074;BME280;41950;55.840;37.442;2023-07-13T11:16:56;98724.81;;;14.70;83.85
56074;BME280;41950;55.840;37.442;2023-07-13T11:22:15;98712.91;;;14.64;84.63
56074;BME280;41950;55.840;37.442;2023-07-13T11:25:02;98721.28;;;14.71;84.09
56074;BME280;41950;55.840;37.442;2023-07-13T11:27:50;98722.03;;;14.73;84.45
56074;BME280;41950;55.840;37.442;2023-07-13T11:38:43;98716.34;;;14.65;86.60
56074;BME280;41950;55.840;37.442;2023-07-13T11:41:20;98716.44;;;14.63;86.94
56074;BME280;41950;55.840;37.442;2023-07-13T11:43:51;98724.72;;;14.71;87.10
56074;BME280;41950;55.840;37.442;2023-07-13T11:46:24;98714.34;;;14.70;87.35
56074;BME280;41950;55.840;37.442;2023-07-13T11:48:51;98720.50;;;14.69;87.58
56074;BME280;41950;55.840;37.442;2023-07-13T11:51:37;98725.13;;;14.81;88.21
56074;BME280;41950;55.840;37.442;2023-07-13T11:54:05;98717.38;;;14.79;88.04
56074;BME280;41950;55.840;37.442;2023-07-13T11:56:33;98699.13;;;14.78;88.02
56074;BME280;41950;55.840;37.442;2023-07-13T11:59:05;98717.06;;;14.86;88.19
56074;BME280;41950;55.840;37.442;2023-07-13T12:01:32;98725.50;;;14.91;88.46
56074;BME280;41950;55.840;37.442;2023-07-13T12:04:02;98725.44;;;14.92;88.93
56074;BME280;41950;55.840;37.442;2023-07-13T12:06:34;98723.59;;;14.94;88.98
56074;BME280;41950;55.840;37.442;2023-07-13T12:09:09;98726.03;;;14.97;89.07
56074;BME280;41950;55.840;37.442;2023-07-13T12:11:40;98726.72;;;15.01;89.21
56074;BME280;41950;55.840;37.442;2023-07-13T12:14:14;98718.97;;;14.99;88.71
56074;BME280;41950;55.840;37.442;2023-07-13T12:16:40;98719.75;;;15.01;88.74
56074;BME280;41950;55.840;37.442;2023-07-13T12:19:16;98727.66;;;15.00;88.56
56074;BME280;41950;55.840;37.442;2023-07-13T12:21:43;98693.63;;;14.84;88.51
56074;BME280;41950;55.840;37.442;2023-07-13T12:24:17;98715.59;;;14.97;88.17
56074;BME280;41950;55.840;37.442;2023-07-13T12:26:44;98710.69;;;14.91;88.24
56074;BME280;41950;55.840;37.442;2023-07-13T12:29:16;98710.53;;;14.94;88.48
56074;BME280;41950;55.840;37.442;2023-07-13T12:31:45;98694.31;;;14.88;88.38
56074;BME280;41950;55.840;37.442;2023-07-13T12:34:14;98712.06;;;14.98;88.02
56074;BME280;41950;55.840;37.442;2023-07-13T12:36:53;98700.06;;;14.94;87.90
56074;BME280;41950;55.840;37.442;2023-07-13T12:39:23;98705.91;;;14.99;87.93
56074;BME280;41950;55.840;37.442;2023-07-13T12:41:50;98703.44;;;14.96;88.20
56074;BME280;41950;55.840;37.442;2023-07-13T12:44:28;98682.25;;;14.85;87.89
56074;BME280;41950;55.840;37.442;2023-07-13T12:47:05;98700.69;;;14.99;87.27
56074;BME280;41950;55.840;37.442;2023-07-13T12:49:41;98672.91;;;14.81;87.32
56074;BME280;41950;55.840;37.442;2023-07-13T12:52:20;98678.72;;;14.86;87.45
56074;BME280;41950;55.840;37.442;2023-07-13T12:54:58;98698.38;;;14.93;87.47
56074;BME280;41950;55.840;37.442;2023-07-13T12:57:25;98697.63;;;14.91;87.35
56074;BME280;41950;55.840;37.442;2023-07-13T12:59:53;98695.94;;;14.90;87.79
56074;BME280;41950;55.840;37.442;2023-07-13T13:02:34;98687.09;;;14.93;87.00
56074;BME280;41950;55.840;37.442;2023-07-13T13:05:01;98696.16;;;14.86;86.89
56074;BME280;41950;55.840;37.442;2023-07-13T13:07:30;98703.16;;;14.85;87.27
56074;BME280;41950;55.840;37.442;2023-07-13T13:09:55;98705.78;;;14.85;86.58
56074;BME280;41950;55.840;37.442;2023-07-13T13:12:22;98697.44;;;14.77;86.55
56074;BME280;41950;55.840;37.442;2023-07-13T13:14:51;98683.63;;;14.75;86.43
56074;BME280;41950;55.840;37.442;2023-07-13T13:17:25;98701.47;;;14.84;86.52
56074;BME280;41950;55.840;37.442;2023-07-13T13:19:53;98697.25;;;14.81;86.64
56074;BME280;41950;55.840;37.442;2023-07-13T13:22:20;98716.22;;;14.85;86.82
56074;BME280;41950;55.840;37.442;2023-07-13T13:24:46;98693.91;;;14.78;87.33
56074;BME280;41950;55.840;37.442;2023-07-13T13:27:17;98703.25;;;14.83;87.38